Time,TemperatureF,DewpointF,PressureIn,WindDirection,WindDirectionDegrees,WindSpeedMPH,WindSpeedGustMPH,Humidity,HourlyPrecipIn,Conditions,Clouds,dailyrainin,SoftwareType,DateUTC
2013-06-29 00:01:00,65.0,48.0,-100.00,ESE,103,12.0,21.0,54,0.00,,,-99.99,,2013-06-29 06:01:00,
2013-06-29 00:12:00,65.0,48.0,-100.00,ESE,106,15.0,22.0,55,0.00,,,-99.99,,2013-06-29 06:12:00,
2013-06-29 00:43:00,63.0,48.0,-100.00,East,100,9.0,14.0,58,0.00,,,-99.99,,2013-06-29 06:43:00,
2013-06-29 01:02:00,60.0,48.0,-100.00,ENE,78,11.0,13.0,65,0.00,,,-99.99,,2013-06-29 07:02:00,
2013-06-29 01:43:00,61.0,48.0,-100.00,ESE,114,11.0,15.0,61,0.00,,,-99.99,,2013-06-29 07:43:00,
2013-06-29 01:53:00,61.0,48.0,-100.00,ESE,117,9.0,13.0,62,0.00,,,-99.99,,2013-06-29 07:53:00,
2013-06-29 02:01:00,60.0,48.0,-100.00,SE,128,6.0,9.0,64,0.00,,,-99.99,,2013-06-29 08:01:00,
2013-06-29 02:33:00,60.0,48.0,-100.00,WSW,251,2.0,4.0,63,0.00,,,-99.99,,2013-06-29 08:33:00,
2013-06-29 02:43:00,61.0,48.0,-100.00,SSW,199,1.0,3.0,62,0.00,,,-99.99,,2013-06-29 08:43:00,
2013-06-29 03:02:00,60.0,48.0,-100.00,ESE,107,4.0,9.0,65,0.00,,,-99.99,,2013-06-29 09:02:00,
2013-06-29 03:12:00,58.0,48.0,-100.00,East,90,4.0,9.0,69,0.00,,,-99.99,,2013-06-29 09:12:00,
2013-06-29 03:42:00,55.0,48.0,-100.00,ESE,112,10.0,16.0,77,0.00,,,-99.99,,2013-06-29 09:42:00,
2013-06-29 04:43:00,55.0,46.0,-100.00,SSW,192,4.0,7.0,72,0.00,,,-99.99,,2013-06-29 10:43:00,
2013-06-29 05:01:00,58.0,47.0,-100.00,West,265,2.0,3.0,67,0.00,,,-99.99,,2013-06-29 11:01:00,
2013-06-29 05:11:00,57.0,47.0,-100.00,NW,312,2.0,4.0,68,0.00,,,-99.99,,2013-06-29 11:11:00,
2013-06-29 05:43:00,56.0,47.0,-100.00,SW,230,1.0,4.0,73,0.00,,,-99.99,,2013-06-29 11:43:00,
2013-06-29 06:02:00,54.0,47.0,-100.00,WNW,301,2.0,4.0,75,0.00,,,-99.99,,2013-06-29 12:02:00,
2013-06-29 06:12:00,54.0,46.0,-100.00,WNW,298,2.0,4.0,74,0.00,,,-99.99,,2013-06-29 12:12:00,
2013-06-29 06:34:00,55.0,46.0,-100.00,SSW,196,2.0,4.0,73,0.00,,,-99.99,,2013-06-29 12:34:00,
2013-06-29 06:43:00,56.0,47.0,-100.00,South,181,4.0,6.0,71,0.00,,,-99.99,,2013-06-29 12:43:00,
2013-06-29 06:53:00,57.0,47.0,-100.00,South,169,2.0,6.0,68,0.00,,,-99.99,,2013-06-29 12:53:00,
2013-06-29 08:12:00,62.0,48.0,-100.00,ENE,69,1.0,4.0,59,0.00,,,-99.99,,2013-06-29 14:12:00,
2013-06-29 08:44:00,64.0,50.0,-100.00,North,3,2.0,4.0,60,0.00,,,-99.99,,2013-06-29 14:44:00,
2013-06-29 08:53:00,66.0,51.0,-100.00,North,11,2.0,5.0,57,0.00,,,-99.99,,2013-06-29 14:53:00,
2013-06-29 09:11:00,66.0,49.0,-100.00,SE,134,3.0,6.0,55,0.00,,,-99.99,,2013-06-29 15:11:00,
2013-06-29 09:42:00,69.0,50.0,-100.00,ENE,61,6.0,11.0,51,0.00,,,-99.99,,2013-06-29 15:42:00,
2013-06-29 10:01:00,69.0,50.0,-100.00,NE,54,6.0,12.0,50,0.00,,,-99.99,,2013-06-29 16:01:00,
2013-06-29 10:43:00,71.0,49.0,-100.00,ENE,78,4.0,10.0,47,0.00,,,-99.99,,2013-06-29 16:43:00,
2013-06-29 11:12:00,73.0,49.0,-100.00,NE,40,3.0,11.0,43,0.00,,,-99.99,,2013-06-29 17:12:00,
2013-06-29 11:42:00,74.0,50.0,-100.00,NW,311,4.0,9.0,42,0.00,,,-99.99,,2013-06-29 17:42:00,
2013-06-29 12:01:00,73.0,47.0,-100.00,ENE,69,6.0,11.0,40,0.00,,,-99.99,,2013-06-29 18:01:00,
2013-06-29 12:12:00,73.0,47.0,-100.00,NNE,32,6.0,16.0,40,0.00,,,-99.99,,2013-06-29 18:12:00,
2013-06-29 12:22:00,73.0,46.0,-100.00,NE,35,6.0,11.0,38,0.00,,,-99.99,,2013-06-29 18:22:00,
2013-06-29 12:34:00,75.0,43.0,-100.00,North,11,4.0,10.0,32,0.00,,,-99.99,,2013-06-29 18:34:00,
2013-06-29 12:43:00,75.0,43.0,-100.00,ENE,78,4.0,9.0,31,0.00,,,-99.99,,2013-06-29 18:43:00,
2013-06-29 13:12:00,78.0,39.0,-100.00,NW,325,6.0,12.0,25,0.00,,,-99.99,,2013-06-29 19:12:00,
2013-06-29 13:43:00,80.0,42.0,-100.00,NE,34,8.0,16.0,26,0.00,,,-99.99,,2013-06-29 19:43:00,
2013-06-29 14:02:00,77.0,36.0,-100.00,North,349,12.0,17.0,23,0.00,,,-99.99,,2013-06-29 20:02:00,
2013-06-29 14:11:00,78.0,35.0,-100.00,NNW,333,10.0,16.0,21,0.00,,,-99.99,,2013-06-29 20:11:00,
2013-06-29 14:33:00,78.0,35.0,-100.00,NNW,346,9.0,13.0,20,0.00,,,-99.99,,2013-06-29 20:33:00,
2013-06-29 14:43:00,78.0,36.0,-100.00,NNE,24,9.0,21.0,22,0.00,,,-99.99,,2013-06-29 20:43:00,
2013-06-29 14:52:00,79.0,36.0,-100.00,NNE,30,6.0,14.0,21,0.00,,,-99.99,,2013-06-29 20:52:00,
2013-06-29 15:02:00,79.0,36.0,-100.00,North,10,14.0,21.0,21,0.00,,,-99.99,,2013-06-29 21:02:00,
2013-06-29 15:11:00,80.0,37.0,-100.00,NW,308,9.0,16.0,21,0.00,,,-99.99,,2013-06-29 21:11:00,
2013-06-29 15:22:00,80.0,36.0,-100.00,NW,326,6.0,17.0,20,0.00,,,-99.99,,2013-06-29 21:22:00,
2013-06-29 15:32:00,79.0,36.0,-100.00,NW,319,11.0,20.0,21,0.00,,,-99.99,,2013-06-29 21:32:00,
2013-06-29 15:42:00,80.0,36.0,-100.00,North,7,12.0,21.0,21,0.00,,,-99.99,,2013-06-29 21:42:00,
2013-06-29 15:52:00,80.0,36.0,-100.00,North,7,15.0,23.0,20,0.00,,,-99.99,,2013-06-29 21:52:00,
2013-06-29 16:01:00,79.0,36.0,-100.00,NW,326,9.0,17.0,21,0.00,,,-99.99,,2013-06-29 22:01:00,
2013-06-29 16:11:00,79.0,35.0,-100.00,NNW,342,12.0,22.0,21,0.00,,,-99.99,,2013-06-29 22:11:00,
2013-06-29 16:43:00,81.0,35.0,-100.00,NNE,21,12.0,20.0,19,0.00,,,-99.99,,2013-06-29 22:43:00,
2013-06-29 16:53:00,80.0,35.0,-100.00,NE,37,9.0,17.0,20,0.00,,,-99.99,,2013-06-29 22:53:00,
2013-06-29 17:12:00,81.0,35.0,-100.00,NW,325,12.0,18.0,19,0.00,,,-99.99,,2013-06-29 23:12:00,
2013-06-29 17:34:00,78.0,34.0,-100.00,NNE,21,8.0,16.0,20,0.00,,,-99.99,,2013-06-29 23:34:00,
2013-06-29 17:43:00,77.0,36.0,-100.00,NE,35,11.0,14.0,23,0.00,,,-99.99,,2013-06-29 23:43:00,
2013-06-29 18:11:00,78.0,40.0,-100.00,NE,41,14.0,19.0,26,0.00,,,-99.99,,2013-06-30 00:11:00,
2013-06-29 18:43:00,76.0,42.0,-100.00,ENE,59,11.0,16.0,30,0.00,,,-99.99,,2013-06-30 00:43:00,
2013-06-29 19:01:00,73.0,43.0,-100.00,NE,52,17.0,21.0,33,0.00,,,-99.99,,2013-06-30 01:01:00,
2013-06-29 19:11:00,73.0,43.0,-100.00,NE,51,14.0,19.0,34,0.00,,,-99.99,,2013-06-30 01:11:00,
2013-06-29 19:44:00,72.0,42.0,-100.00,ENE,59,14.0,18.0,35,0.00,,,-99.99,,2013-06-30 01:44:00,
2013-06-29 19:53:00,71.0,42.0,-100.00,ENE,72,11.0,17.0,35,0.00,,,-99.99,,2013-06-30 01:53:00,
2013-06-29 20:02:00,71.0,42.0,-100.00,ENE,76,14.0,20.0,34,0.00,,,-99.99,,2013-06-30 02:02:00,
2013-06-29 20:11:00,71.0,41.0,-100.00,ENE,75,13.0,18.0,34,0.00,,,-99.99,,2013-06-30 02:11:00,
2013-06-29 20:33:00,70.0,42.0,-100.00,East,83,13.0,18.0,36,0.00,,,-99.99,,2013-06-30 02:33:00,
2013-06-29 20:43:00,69.0,41.0,-100.00,East,86,14.0,19.0,36,0.00,,,-99.99,,2013-06-30 02:43:00,
2013-06-29 21:01:00,69.0,41.0,-100.00,East,89,13.0,21.0,36,0.00,,,-99.99,,2013-06-30 03:01:00,
2013-06-29 21:12:00,69.0,40.0,-100.00,East,92,12.0,18.0,36,0.00,,,-99.99,,2013-06-30 03:12:00,
2013-06-29 21:43:00,67.0,41.0,-100.00,ESE,103,11.0,20.0,38,0.00,,,-99.99,,2013-06-30 03:43:00,
2013-06-29 21:53:00,67.0,41.0,-100.00,ESE,102,11.0,22.0,38,0.00,,,-99.99,,2013-06-30 03:53:00,
2013-06-29 22:12:00,66.0,42.0,-100.00,ESE,104,12.0,20.0,41,0.00,,,-99.99,,2013-06-30 04:12:00,
2013-06-29 22:33:00,66.0,42.0,-100.00,ESE,104,12.0,22.0,42,0.00,,,-99.99,,2013-06-30 04:33:00,
2013-06-29 22:43:00,66.0,42.0,-100.00,ESE,107,14.0,23.0,42,0.00,,,-99.99,,2013-06-30 04:43:00,
2013-06-29 22:53:00,66.0,43.0,-100.00,ESE,109,17.0,25.0,43,0.00,,,-99.99,,2013-06-30 04:53:00,
2013-06-29 23:02:00,66.0,43.0,-100.00,ESE,113,18.0,24.0,42,0.00,,,-99.99,,2013-06-30 05:02:00,
2013-06-29 23:12:00,66.0,43.0,-100.00,ESE,123,15.0,22.0,43,0.00,,,-99.99,,2013-06-30 05:12:00,
2013-06-29 23:33:00,65.0,43.0,-100.00,ESE,107,4.0,8.0,44,0.00,,,-99.99,,2013-06-30 05:33:00,
2013-06-29 23:43:00,66.0,44.0,-100.00,SSW,196,4.0,7.0,45,0.00,,,-99.99,,2013-06-30 05:43:00,
2013-06-29 23:53:00,63.0,45.0,-100.00,WSW,244,9.0,19.0,53,0.00,,,-99.99,,2013-06-30 05:53:00,